CYYN

Swift Current Airport

Swift Current, Saskatchewan, Canada
METAR CYYN 250000Z AUTO 22019G24KT 9SM CLR 18/M06 A3016 RMK SLP228 DENSITY ALT 3300FT
Observed Flight Rules
Apr-25 @ 00:00 UTC (38 minutes ago) Visual Flight Rules
Wind Visibility Clouds
220° at 19 knots
 Gusting to 24 knots
9 miles
  • Clear skies
Temperatures Readings
Current 18°C / 64°F
Dewpoint -6°C / 21°F
Humidity 19%
Altimeter 30.16" Hg
Pressure 1022.8 hPa
Elevation 818
METAR CYYN 250000Z AUTO 22019G24KT 9SM CLR 18/M06 A3016 RMK SLP228 DENSITY ALT 3300FT
Observed Flight Rules
Apr-25 @ 00:00 UTC
(38 minutes ago)
VFR
Wind Visibility
220° at 19 knots
 Gusting to 24 knots
9 miles
Clouds
  • Clear skies
Temperature Dewpoint
18°C / 64°F -6°C / 21°F
Humidity Altimeter Pressure
19% 30.16" Hg 1022.8 hPa